Time;durP1;ratioP1;P1;durP2;ratioP2;P2;SDS_P1;SDS_P2;PMS_P1;PMS_P2;Temp;Humidity;BMP_temperature;BMP_pressure;BME280_temperature;BME280_humidity;BME280_pressure;Samples;Min_cycle;Max_cycle;Signal;HPM_P1;HPM_P2
2023/08/09 00:00:49;;;;;;;0.10;0.10;;;;;;;12.75;100.00;96247.56;5016043;28;20045;-82
2023/08/09 00:03:35;;;;;;;0.10;0.10;;;;;;;12.82;100.00;96249.97;5015859;28;20630;-82
2023/08/09 00:06:21;;;;;;;0.10;0.10;;;;;;;12.82;100.00;96236.56;5016386;28;20709;-82
2023/08/09 00:09:06;;;;;;;0.10;0.10;;;;;;;12.84;100.00;96231.75;5016332;28;20052;-82
2023/08/09 00:11:52;;;;;;;0.10;0.10;;;;;;;12.89;100.00;96234.41;5017070;28;20038;-82
2023/08/09 00:14:38;;;;;;;0.15;0.15;;;;;;;12.93;100.00;96242.75;5017105;28;20033;-84
2023/08/09 00:17:24;;;;;;;0.10;0.10;;;;;;;12.86;100.00;96226.91;5014276;28;20049;-81
2023/08/09 00:20:13;;;;;;;0.10;0.10;;;;;;;12.89;100.00;96229.03;5015875;28;20156;-81
2023/08/09 00:22:59;;;;;;;0.10;0.10;;;;;;;12.86;100.00;96234.97;5016881;28;20659;-82
2023/08/09 00:25:45;;;;;;;0.10;0.10;;;;;;;12.79;100.00;96229.06;5015768;28;20048;-82
2023/08/09 00:28:31;;;;;;;0.10;0.10;;;;;;;12.77;100.00;96223.16;5015639;28;20041;-81
2023/08/09 00:31:19;;;;;;;0.10;0.10;;;;;;;12.88;100.00;96221.25;5018563;28;20041;-81
2023/08/09 00:34:06;;;;;;;0.10;0.10;;;;;;;12.88;100.00;96224.75;5025214;28;20596;-81
2023/08/09 00:36:52;;;;;;;0.10;0.10;;;;;;;12.81;100.00;96227.69;5032309;28;20037;-80
2023/08/09 00:39:38;;;;;;;0.10;0.10;;;;;;;12.88;100.00;96232.81;5030924;28;20073;-83
2023/08/09 00:42:23;;;;;;;0.10;0.10;;;;;;;12.90;100.00;96230.66;5014547;28;20606;-81
2023/08/09 00:45:11;;;;;;;0.10;0.10;;;;;;;12.92;100.00;96219.63;5013012;28;20056;-83
2023/08/09 00:47:57;;;;;;;0.10;0.10;;;;;;;12.96;100.00;96224.22;5000883;28;20052;-83
2023/08/09 00:50:43;;;;;;;0.20;0.20;;;;;;;12.94;100.00;96220.19;5017411;28;20048;-82
2023/08/09 00:53:31;;;;;;;0.10;0.10;;;;;;;12.90;100.00;96229.84;5014290;28;20041;-83
2023/08/09 00:56:17;;;;;;;0.13;0.13;;;;;;;12.89;100.00;96223.66;5015300;28;20411;-81
2023/08/09 00:59:03;;;;;;;0.13;0.13;;;;;;;12.78;100.00;96227.44;4998981;28;20436;-80
2023/08/09 01:01:49;;;;;;;0.10;0.10;;;;;;;12.82;100.00;96225.81;5001550;28;20766;-81
2023/08/09 01:04:36;;;;;;;0.10;0.10;;;;;;;12.82;100.00;96217.75;5015210;28;20107;-82
2023/08/09 01:07:35;;;;;;;0.10;0.10;;;;;;;12.83;100.00;96222.06;5012390;28;20567;-82
2023/08/09 01:10:33;;;;;;;0.10;0.10;;;;;;;12.82;100.00;96223.94;5017733;28;20048;-83
2023/08/09 01:13:19;;;;;;;0.10;0.10;;;;;;;12.80;100.00;96222.59;5014618;28;20045;-84
2023/08/09 01:16:07;;;;;;;0.10;0.10;;;;;;;12.82;100.00;96218.56;5014487;28;20036;-82
2023/08/09 01:18:55;;;;;;;0.10;0.10;;;;;;;12.89;100.00;96218.31;5013893;28;20037;-80
2023/08/09 01:21:43;;;;;;;0.10;0.10;;;;;;;12.82;100.00;96210.50;5001081;28;20037;-81
2023/08/09 01:24:33;;;;;;;0.10;0.10;;;;;;;12.80;100.00;96217.22;5010466;28;20654;-83
2023/08/09 01:27:19;;;;;;;0.20;0.20;;;;;;;12.86;100.00;96213.47;5012193;28;20147;-83
2023/08/09 01:30:07;;;;;;;0.10;0.10;;;;;;;12.80;100.00;96214.53;5012686;28;20120;-84
2023/08/09 01:32:54;;;;;;;0.10;0.10;;;;;;;12.78;100.00;96211.34;5012805;28;20037;-82
2023/08/09 01:35:47;;;;;;;0.10;0.10;;;;;;;12.76;100.00;96221.50;4998948;28;20511;-81
2023/08/09 01:38:45;;;;;;;0.15;0.15;;;;;;;12.77;100.00;96220.47;5010760;28;20138;-82
2023/08/09 01:41:31;;;;;;;0.10;0.10;;;;;;;12.83;100.00;96220.16;4999857;28;20033;-80
2023/08/09 01:44:18;;;;;;;0.10;0.10;;;;;;;12.80;100.00;96215.34;5015039;28;20120;-81
2023/08/09 01:47:05;;;;;;;0.10;0.10;;;;;;;12.79;100.00;96218.31;4996887;28;20594;-81
2023/08/09 01:49:51;;;;;;;0.10;0.10;;;;;;;12.72;100.00;96234.69;5013778;28;20041;-79
2023/08/09 01:52:37;;;;;;;0.10;0.10;;;;;;;12.75;100.00;96225.28;4997332;28;21098;-81
2023/08/09 01:55:26;;;;;;;0.10;0.10;;;;;;;12.83;100.00;96220.16;5017362;28;20041;-80
2023/08/09 01:58:13;;;;;;;0.10;0.10;;;;;;;12.86;100.00;96218.84;5017839;28;20106;-81
2023/08/09 02:00:59;;;;;;;0.10;0.10;;;;;;;12.89;100.00;96217.50;5017072;28;20241;-80
2023/08/09 02:03:45;;;;;;;0.20;0.20;;;;;;;12.83;100.00;96216.69;4999889;28;20045;-80
2023/08/09 02:06:32;;;;;;;0.10;0.10;;;;;;;12.86;100.00;96218.84;5013521;28;20896;-82
2023/08/09 02:09:18;;;;;;;0.10;0.10;;;;;;;12.83;100.00;96219.38;5014135;28;20053;-80
2023/08/09 02:12:04;;;;;;;0.10;0.10;;;;;;;12.83;100.00;96222.06;5013584;28;20949;-82
2023/08/09 02:14:51;;;;;;;0.10;0.10;;;;;;;12.84;100.00;96226.38;5014985;28;20064;-79
2023/08/09 02:17:37;;;;;;;0.10;0.10;;;;;;;12.90;100.00;96219.91;4998062;28;20167;-80
2023/08/09 02:20:23;;;;;;;0.10;0.10;;;;;;;12.91;100.00;96220.72;5013489;28;20033;-82
2023/08/09 02:23:09;;;;;;;0.17;0.17;;;;;;;12.88;100.00;96222.06;5012730;28;20395;-81
2023/08/09 02:25:55;;;;;;;0.10;0.10;;;;;;;12.85;100.00;96219.94;5014151;28;20047;-81
2023/08/09 02:28:41;;;;;;;0.10;0.10;;;;;;;12.86;100.00;96216.16;5013085;28;20033;-81
2023/08/09 02:31:27;;;;;;;0.20;0.20;;;;;;;12.80;100.00;96214.53;5021157;28;20044;-80
2023/08/09 02:34:13;;;;;;;0.20;0.20;;;;;;;12.79;100.00;96223.69;5028138;28;20052;-80
2023/08/09 02:36:59;;;;;;;0.13;0.13;;;;;;;12.73;100.00;96214.00;5030800;28;20096;-81
2023/08/09 02:39:45;;;;;;;0.10;0.10;;;;;;;12.74;100.00;96231.72;5023115;28;20048;-82
2023/08/09 02:42:31;;;;;;;0.10;0.10;;;;;;;12.72;100.00;96225.81;5014028;28;20103;-83
2023/08/09 02:45:17;;;;;;;0.13;0.13;;;;;;;12.77;100.00;96225.84;5001694;28;20060;-82
2023/08/09 02:48:03;;;;;;;0.13;0.13;;;;;;;12.79;100.00;96221.78;5013124;28;20034;-83
2023/08/09 02:50:49;;;;;;;0.10;0.10;;;;;;;12.85;100.00;96224.50;5019631;28;20041;-81
2023/08/09 02:54:01;;;;;;;0.10;0.10;;;;;;;12.83;100.00;96216.69;5002987;28;20033;-82
2023/08/09 02:56:46;;;;;;;0.10;0.10;;;;;;;12.88;100.00;96222.06;5015876;28;20774;-81
2023/08/09 02:59:32;;;;;;;0.10;0.10;;;;;;;12.90;100.00;96216.41;5015153;28;20480;-81
2023/08/09 03:02:18;;;;;;;0.10;0.10;;;;;;;12.90;100.00;96225.28;5012716;28;20950;-81
2023/08/09 03:05:06;;;;;;;0.10;0.10;;;;;;;12.89;100.00;96225.56;5003851;28;20052;-81
2023/08/09 03:07:52;;;;;;;0.10;0.10;;;;;;;12.94;100.00;96225.56;5014704;28;20077;-81
2023/08/09 03:10:38;;;;;;;0.20;0.20;;;;;;;12.96;100.00;96240.31;5017131;28;20034;-82
2023/08/09 03:13:24;;;;;;;0.10;0.10;;;;;;;12.99;100.00;96226.34;5002888;28;20041;-80
2023/08/09 03:16:10;;;;;;;0.10;0.10;;;;;;;12.96;100.00;96234.97;5001414;28;20057;-82
2023/08/09 03:18:56;;;;;;;0.10;0.10;;;;;;;12.98;100.00;96227.44;5000362;28;20048;-82
2023/08/09 03:21:43;;;;;;;0.10;0.10;;;;;;;12.98;100.00;96224.75;5015814;28;20120;-82
2023/08/09 03:24:29;;;;;;;0.10;0.10;;;;;;;12.97;100.00;96236.56;5019521;28;20367;-80
2023/08/09 03:27:15;;;;;;;0.10;0.10;;;;;;;13.00;100.00;96238.72;4999798;28;20103;-81
2023/08/09 03:30:04;;;;;;;0.10;0.10;;;;;;;13.01;100.00;96240.34;5016646;28;20528;-80
2023/08/09 03:32:50;;;;;;;0.10;0.10;;;;;;;13.01;100.00;96237.66;5003339;28;20042;-83
2023/08/09 03:35:35;;;;;;;0.10;0.10;;;;;;;13.00;100.00;96236.03;5002919;28;20046;-82
2023/08/09 03:38:21;;;;;;;0.10;0.10;;;;;;;13.00;100.00;96241.41;5018093;28;20041;-82
2023/08/09 03:41:07;;;;;;;0.10;0.10;;;;;;;13.00;100.00;96249.47;5015034;28;20053;-81
2023/08/09 03:43:53;;;;;;;0.10;0.10;;;;;;;13.00;100.00;96248.66;5014954;28;20037;-82
2023/08/09 03:46:39;;;;;;;0.10;0.10;;;;;;;13.01;100.00;96239.53;5018154;28;20597;-81
2023/08/09 03:49:26;;;;;;;0.10;0.10;;;;;;;12.99;100.00;96231.72;5000517;28;20046;-82
2023/08/09 03:52:12;;;;;;;0.10;0.10;;;;;;;13.01;100.00;96248.41;5000840;28;20052;-81
2023/08/09 03:54:58;;;;;;;0.10;0.10;;;;;;;13.01;100.00;96248.41;5031863;28;20033;-81
2023/08/09 03:57:43;;;;;;;0.10;0.10;;;;;;;12.99;100.00;96244.34;5023117;28;20037;-80
2023/08/09 04:00:29;;;;;;;0.20;0.20;;;;;;;12.99;100.00;96241.66;5012451;28;20040;-81
2023/08/09 04:03:17;;;;;;;0.10;0.10;;;;;;;13.01;100.00;96251.09;5015205;28;20052;-82
2023/08/09 04:06:03;;;;;;;0.10;0.10;;;;;;;13.01;100.00;96255.66;5018676;28;20159;-80
2023/08/09 04:08:49;;;;;;;0.10;0.10;;;;;;;13.03;100.00;96261.56;5019564;28;20045;-80
2023/08/09 04:11:35;;;;;;;0.10;0.10;;;;;;;13.07;100.00;96257.22;5013880;28;20072;-81
2023/08/09 04:14:21;;;;;;;0.10;0.10;;;;;;;13.13;100.00;96269.59;5014221;28;20096;-82
2023/08/09 04:17:08;;;;;;;0.10;0.10;;;;;;;13.13;100.00;96260.75;5002439;28;20052;-81
2023/08/09 04:19:54;;;;;;;0.10;0.10;;;;;;;13.09;100.00;96261.28;5001497;28;20041;-80
2023/08/09 04:22:39;;;;;;;0.10;0.10;;;;;;;13.08;100.00;96281.16;5003882;28;20441;-80
2023/08/09 04:25:26;;;;;;;0.20;0.20;;;;;;;13.09;100.00;96266.66;5000429;28;20044;-81
2023/08/09 04:28:12;;;;;;;0.20;0.20;;;;;;;13.09;100.00;96263.97;5013011;28;20551;-81
2023/08/09 04:30:58;;;;;;;0.10;0.10;;;;;;;13.09;100.00;96269.34;5014312;28;20041;-81
2023/08/09 04:33:49;;;;;;;0.10;0.10;;;;;;;13.13;100.00;96276.84;5018376;28;20081;-80
2023/08/09 04:36:35;;;;;;;0.13;0.13;;;;;;;13.11;100.00;96286.00;5020948;28;20041;-83
2023/08/09 04:39:20;;;;;;;0.10;0.10;;;;;;;13.10;100.00;96297.81;5016370;28;20041;-82
2023/08/09 04:42:06;;;;;;;0.10;0.10;;;;;;;13.17;100.00;96304.81;5018316;28;20594;-83
2023/08/09 04:44:52;;;;;;;0.10;0.10;;;;;;;13.15;100.00;96312.31;4999920;28;20048;-83
2023/08/09 04:47:39;;;;;;;0.10;0.10;;;;;;;13.14;100.00;96310.69;5013918;28;20439;-80
2023/08/09 04:50:24;;;;;;;0.10;0.10;;;;;;;12.99;100.00;96312.28;5016520;28;20068;-79
2023/08/09 04:53:11;;;;;;;0.10;0.10;;;;;;;12.81;100.00;96331.63;5016483;28;20045;-79
2023/08/09 04:55:56;;;;;;;0.13;0.13;;;;;;;12.67;100.00;96346.59;5017523;28;20037;-80
2023/08/09 04:58:44;;;;;;;0.10;0.10;;;;;;;12.41;100.00;96335.78;5014957;28;20033;-80
2023/08/09 05:01:30;;;;;;;0.10;0.10;;;;;;;12.52;100.00;96348.16;5016010;28;20051;-80
2023/08/09 05:04:16;;;;;;;0.10;0.10;;;;;;;12.37;100.00;96345.41;5018734;28;20636;-80
2023/08/09 05:07:04;;;;;;;0.10;0.10;;;;;;;12.31;100.00;96354.53;5017384;28;20566;-79
2023/08/09 05:09:50;;;;;;;0.17;0.17;;;;;;;12.44;100.00;96343.31;5014764;28;20065;-80
2023/08/09 05:12:36;;;;;;;0.10;0.10;;;;;;;12.49;100.00;96340.66;5015294;28;20123;-79
2023/08/09 05:15:22;;;;;;;0.10;0.10;;;;;;;12.50;100.00;96341.44;5015843;28;20045;-81
2023/08/09 05:18:08;;;;;;;0.17;0.17;;;;;;;12.51;100.00;96343.88;5017462;28;21050;-79
2023/08/09 05:20:54;;;;;;;0.13;0.13;;;;;;;12.71;100.00;96353.88;5016170;28;20048;-79
2023/08/09 05:23:40;;;;;;;0.10;0.10;;;;;;;12.69;100.00;96347.16;5015101;28;20044;-80
2023/08/09 05:26:25;;;;;;;0.10;0.10;;;;;;;12.87;100.00;96343.19;5014855;28;20041;-78
2023/08/09 05:29:11;;;;;;;0.10;0.10;;;;;;;13.18;100.00;96333.28;5017783;28;20734;-82
2023/08/09 05:31:57;;;;;;;0.10;0.10;;;;;;;13.46;100.00;96334.66;5014630;28;20894;-82
2023/08/09 05:34:44;;;;;;;0.10;0.10;;;;;;;13.40;100.00;96336.56;5015057;28;20496;-79
2023/08/09 05:37:30;;;;;;;0.08;0.08;;;;;;;13.27;100.00;96334.38;5014884;28;20048;-80
2023/08/09 05:40:16;;;;;;;0.10;0.10;;;;;;;13.42;100.00;96337.09;5016837;28;20049;-81
2023/08/09 05:43:02;;;;;;;0.10;0.10;;;;;;;13.33;100.00;96342.19;5015301;28;20432;-81
2023/08/09 05:45:48;;;;;;;0.10;0.10;;;;;;;13.53;100.00;96352.13;5017732;28;20644;-79
2023/08/09 05:48:34;;;;;;;0.10;0.10;;;;;;;13.65;100.00;96346.47;5013431;28;20088;-81
2023/08/09 05:51:20;;;;;;;0.10;0.10;;;;;;;13.64;100.00;96348.38;4997586;28;20075;-80
2023/08/09 05:54:07;;;;;;;0.10;0.10;;;;;;;13.79;100.00;96341.38;5014897;28;20071;-79
2023/08/09 05:56:52;;;;;;;0.10;0.10;;;;;;;13.84;100.00;96339.44;5017522;28;20041;-78
2023/08/09 05:59:41;;;;;;;0.10;0.10;;;;;;;14.03;100.00;96345.06;5015049;28;20134;-80
2023/08/09 06:02:27;;;;;;;0.17;0.17;;;;;;;14.01;100.00;96341.84;4998164;28;20128;-79
2023/08/09 06:05:46;;;;;;;0.10;0.10;;;;;;;14.10;100.00;96340.22;5016751;28;20152;-80
2023/08/09 06:08:24;;;;;;;0.17;0.17;;;;;;;14.30;100.00;96338.53;5015288;28;20079;-81
2023/08/09 06:11:10;;;;;;;0.10;0.10;;;;;;;14.36;100.00;96342.81;5018515;28;20048;-81
2023/08/09 06:13:57;;;;;;;0.10;0.10;;;;;;;13.96;100.00;96349.13;5018035;28;20053;-81
2023/08/09 06:16:46;;;;;;;0.10;0.10;;;;;;;13.77;100.00;96359.63;5020302;28;20122;-80
2023/08/09 06:19:33;;;;;;;0.20;0.20;;;;;;;13.57;100.00;96363.97;5021789;28;20041;-82
2023/08/09 06:22:19;;;;;;;0.10;0.10;;;;;;;13.54;100.00;96369.88;5017242;28;20072;-82
2023/08/09 06:25:05;;;;;;;0.20;0.20;;;;;;;13.59;100.00;96375.25;5021605;28;20127;-82
2023/08/09 06:27:53;;;;;;;0.10;0.10;;;;;;;13.56;100.00;96388.44;5018381;28;20041;-82
2023/08/09 06:30:39;;;;;;;0.10;0.10;;;;;;;13.66;100.00;96388.41;5015448;28;20030;-82
2023/08/09 06:33:25;;;;;;;0.15;0.15;;;;;;;14.11;100.00;96392.16;5002308;28;20041;-81
2023/08/09 06:36:11;;;;;;;0.13;0.13;;;;;;;14.19;100.00;96389.69;5003302;28;20588;-80
2023/08/09 06:38:57;;;;;;;0.20;0.20;;;;;;;14.09;100.00;96395.09;5017852;28;20041;-81
2023/08/09 06:41:46;;;;;;;0.10;0.10;;;;;;;13.91;100.00;96391.09;5017986;28;20029;-81
2023/08/09 06:44:31;;;;;;;0.10;0.10;;;;;;;13.97;100.00;96396.47;5018000;28;20704;-82
2023/08/09 06:47:17;;;;;;;0.10;0.10;;;;;;;13.86;100.00;96399.19;5018044;28;20202;-82
2023/08/09 06:50:06;;;;;;;0.10;0.10;;;;;;;13.93;100.00;96404.28;5017683;28;20041;-82
2023/08/09 06:52:53;;;;;;;0.10;0.10;;;;;;;13.99;100.00;96408.56;5017732;28;20040;-82
2023/08/09 06:55:39;;;;;;;0.10;0.10;;;;;;;14.05;100.00;96412.88;5016790;28;20041;-81
2023/08/09 06:58:25;;;;;;;0.13;0.13;;;;;;;14.12;100.00;96426.03;5018253;28;20049;-80
2023/08/09 07:01:11;;;;;;;0.10;0.10;;;;;;;14.27;100.00;96428.72;5016803;28;20041;-82
2023/08/09 07:03:57;;;;;;;0.10;0.10;;;;;;;14.35;100.00;96438.91;5018538;28;20069;-80
2023/08/09 07:06:44;;;;;;;0.10;0.10;;;;;;;14.37;100.00;96436.75;5016443;28;20053;-82
2023/08/09 07:09:30;;;;;;;0.10;0.10;;;;;;;14.39;100.00;96441.84;5020880;28;20046;-81
2023/08/09 07:12:16;;;;;;;0.10;0.10;;;;;;;14.38;100.00;96443.75;5017063;28;20056;-81
2023/08/09 07:15:07;;;;;;;0.10;0.10;;;;;;;14.38;100.00;96448.31;5021080;28;20037;-81
2023/08/09 07:17:53;;;;;;;0.10;0.10;;;;;;;14.48;100.00;96448.34;5019876;28;20037;-81
2023/08/09 07:20:38;;;;;;;0.20;0.20;;;;;;;14.69;100.00;96449.06;5018267;28;20033;-81
2023/08/09 07:23:25;;;;;;;0.20;0.20;;;;;;;14.71;100.00;96452.31;5017096;28;20041;-81
2023/08/09 07:26:11;;;;;;;0.10;0.10;;;;;;;14.84;100.00;96459.78;5016008;28;20076;-83
2023/08/09 07:28:57;;;;;;;0.20;0.20;;;;;;;14.85;100.00;96458.72;5002912;28;20041;-81
2023/08/09 07:31:43;;;;;;;0.10;0.10;;;;;;;15.03;100.00;96474.28;5021413;28;20037;-82
2023/08/09 07:34:29;;;;;;;0.20;0.20;;;;;;;15.15;100.00;96467.75;5018709;28;20041;-82
2023/08/09 07:37:14;;;;;;;0.10;0.10;;;;;;;15.26;100.00;96469.31;5017925;28;20056;-81
2023/08/09 07:40:03;;;;;;;0.10;0.10;;;;;;;15.32;100.00;96474.38;5019110;28;20467;-82
2023/08/09 07:42:49;;;;;;;0.20;0.20;;;;;;;14.91;100.00;96489.13;5019943;28;20045;-79
2023/08/09 07:45:34;;;;;;;0.10;0.10;;;;;;;14.86;100.00;96487.25;5020580;28;20076;-79
2023/08/09 07:48:20;;;;;;;0.10;0.10;;;;;;;15.09;100.00;96485.03;5016663;28;20628;-79
2023/08/09 07:51:11;;;;;;;0.20;0.20;;;;;;;15.05;100.00;96492.88;5018558;28;20037;-78
2023/08/09 07:53:57;;;;;;;0.10;0.10;;;;;;;14.92;100.00;96501.53;5019329;28;20044;-79
2023/08/09 07:56:43;;;;;;;0.10;0.10;;;;;;;15.09;100.00;96501.19;5017363;28;20038;-79
2023/08/09 07:59:29;;;;;;;0.10;0.10;;;;;;;15.04;100.00;96499.34;5015713;28;20037;-79
2023/08/09 08:02:15;;;;;;;0.20;0.20;;;;;;;15.09;100.00;96510.06;5017584;28;20111;-80
2023/08/09 08:05:01;;;;;;;0.20;0.20;;;;;;;15.02;100.00;96505.00;5018518;28;20036;-80
2023/08/09 08:07:47;;;;;;;0.10;0.10;;;;;;;14.97;100.00;96502.31;5015959;28;20041;-79
2023/08/09 08:10:32;;;;;;;0.10;0.10;;;;;;;14.93;100.00;96503.94;5014869;28;20032;-80
2023/08/09 08:13:19;;;;;;;0.10;0.10;;;;;;;14.96;100.00;96508.00;5003334;28;20553;-80
2023/08/09 08:16:05;;;;;;;0.20;0.20;;;;;;;15.10;100.00;96508.19;5016689;28;20049;-79
2023/08/09 08:18:51;;;;;;;0.10;0.10;;;;;;;15.11;100.00;96510.63;5015863;28;20129;-79
2023/08/09 08:21:37;;;;;;;0.10;0.10;;;;;;;15.28;100.00;96510.28;5015962;28;20107;-80
2023/08/09 08:24:24;;;;;;;0.20;0.20;;;;;;;15.36;100.00;96517.00;5014766;28;20529;-79
2023/08/09 08:27:10;;;;;;;0.10;0.10;;;;;;;15.34;100.00;96519.97;5016167;28;21300;-80
2023/08/09 08:29:56;;;;;;;0.10;0.10;;;;;;;15.50;100.00;96520.69;5019288;28;20064;-78
2023/08/09 08:32:41;;;;;;;0.20;0.20;;;;;;;15.60;100.00;96528.72;5015448;28;20034;-79
2023/08/09 08:35:33;;;;;;;0.10;0.10;;;;;;;15.77;100.00;96529.19;5015822;28;20041;-79
2023/08/09 08:38:19;;;;;;;0.10;0.10;;;;;;;15.84;100.00;96535.06;5017705;28;20045;-81
2023/08/09 08:41:05;;;;;;;0.20;0.20;;;;;;;15.98;100.00;96524.47;5013212;28;20049;-80
2023/08/09 08:43:51;;;;;;;0.10;0.10;;;;;;;16.32;100.00;96529.06;5014757;28;20124;-80
2023/08/09 08:46:37;;;;;;;0.20;0.20;;;;;;;16.50;100.00;96531.06;4997192;28;20966;-80
2023/08/09 08:49:27;;;;;;;0.10;0.10;;;;;;;16.79;100.00;96538.38;5002136;28;20568;-80
2023/08/09 08:52:15;;;;;;;0.20;0.20;;;;;;;16.77;100.00;96529.75;5017739;28;20033;-80
2023/08/09 08:55:01;;;;;;;0.10;0.10;;;;;;;16.86;100.00;96544.25;5016338;28;20040;-81
2023/08/09 08:57:47;;;;;;;0.20;0.20;;;;;;;16.90;100.00;96542.59;5016876;28;20048;-80
2023/08/09 09:00:32;;;;;;;0.10;0.10;;;;;;;16.90;100.00;96538.00;5015591;28;20137;-81
2023/08/09 09:03:18;;;;;;;0.15;0.15;;;;;;;17.01;100.00;96540.56;5015390;28;20115;-81
2023/08/09 09:06:04;;;;;;;0.10;0.10;;;;;;;16.99;100.00;96546.28;4986335;28;20409;-80
2023/08/09 09:08:59;;;;;;;0.20;0.20;;;;;;;17.16;100.00;96543.91;4974683;28;20042;-79
2023/08/09 09:11:45;;;;;;;0.20;0.20;;;;;;;17.31;100.00;96544.81;4975565;28;20038;-78
2023/08/09 09:14:31;;;;;;;0.10;0.10;;;;;;;17.31;100.00;96540.22;4989896;28;20042;-80
2023/08/09 09:17:19;;;;;;;0.20;0.20;;;;;;;17.37;100.00;96546.38;4975167;28;20053;-79
2023/08/09 09:20:10;;;;;;;0.20;0.20;;;;;;;16.95;100.00;96539.81;4972603;28;20505;-81
2023/08/09 09:22:56;;;;;;;0.20;0.20;;;;;;;17.09;100.00;96540.75;4977654;28;20054;-78
2023/08/09 09:25:45;;;;;;;0.20;0.20;;;;;;;17.38;100.00;96542.59;4975227;28;20565;-78
2023/08/09 09:28:38;;;;;;;0.10;0.10;;;;;;;17.63;100.00;96547.66;4976311;28;20041;-80
2023/08/09 09:31:35;;;;;;;0.20;0.20;;;;;;;17.86;100.00;96542.50;4977160;28;20034;-79
2023/08/09 09:34:28;;;;;;;0.10;0.10;;;;;;;18.05;100.00;96552.25;4978521;28;20042;-79
2023/08/09 09:37:17;;;;;;;0.20;0.20;;;;;;;18.22;100.00;96545.50;4975797;28;20046;-80
2023/08/09 09:40:03;;;;;;;0.10;0.10;;;;;;;18.09;100.00;96545.13;4974963;28;20053;-81
2023/08/09 09:42:53;;;;;;;0.13;0.13;;;;;;;17.86;100.00;96546.00;4978132;28;20152;-79
2023/08/09 09:45:41;;;;;;;0.10;0.10;;;;;;;17.93;100.00;96551.88;4977844;28;20050;-80
2023/08/09 09:48:28;;;;;;;0.20;0.20;;;;;;;17.94;100.00;96555.38;4980179;28;20297;-79
2023/08/09 09:51:16;;;;;;;0.20;0.20;;;;;;;18.06;100.00;96561.97;4980377;28;20053;-80
2023/08/09 09:54:04;;;;;;;0.10;0.10;;;;;;;18.03;100.00;96565.25;4980886;28;20812;-82
2023/08/09 09:56:50;;;;;;;0.10;0.10;;;;;;;17.66;100.00;96559.78;4979746;28;20046;-83
2023/08/09 09:59:36;;;;;;;0.10;0.10;;;;;;;17.25;100.00;96555.69;4977116;28;20042;-82
2023/08/09 10:02:22;;;;;;;0.10;0.10;;;;;;;17.05;100.00;96560.53;4976292;28;20050;-78
2023/08/09 10:05:10;;;;;;;0.10;0.10;;;;;;;17.22;100.00;96552.78;4985006;28;20038;-80
2023/08/09 10:07:57;;;;;;;0.10;0.10;;;;;;;17.80;100.00;96564.22;5020916;28;20612;-80
2023/08/09 10:10:45;;;;;;;0.10;0.10;;;;;;;18.82;100.00;96556.41;5007943;28;20046;-79
2023/08/09 10:13:32;;;;;;;0.10;0.10;;;;;;;19.89;97.64;96567.88;5017781;28;20041;-82
2023/08/09 10:16:23;;;;;;;0.05;0.05;;;;;;;20.60;83.83;96566.25;5016900;28;20081;-80
2023/08/09 10:19:15;;;;;;;0.10;0.10;;;;;;;21.40;80.90;96564.44;5020212;28;20048;-80
2023/08/09 10:22:02;;;;;;;0.17;0.17;;;;;;;21.64;78.75;96566.75;5019472;28;20040;-80
2023/08/09 10:24:50;;;;;;;0.10;0.10;;;;;;;21.88;78.14;96569.06;5024189;28;20044;-82
2023/08/09 10:27:45;;;;;;;0.10;0.10;;;;;;;22.71;76.64;96571.63;5023627;28;20033;-80
2023/08/09 10:30:47;;;;;;;0.10;0.10;;;;;;;22.09;76.90;96574.69;5017808;28;20042;-80
2023/08/09 10:33:33;;;;;;;0.17;0.17;;;;;;;22.17;75.88;96584.78;5001621;28;20041;-80
2023/08/09 10:36:32;;;;;;;0.15;0.15;;;;;;;22.35;76.73;96585.63;5016028;28;20152;-82
2023/08/09 10:39:20;;;;;;;0.20;0.20;;;;;;;22.30;75.83;96583.84;5019523;28;20033;-83
2023/08/09 10:42:09;;;;;;;0.20;0.20;;;;;;;22.78;74.76;96583.63;5022635;28;20314;-81
2023/08/09 10:45:04;;;;;;;0.10;0.10;;;;;;;23.07;62.84;96587.63;5019142;28;20076;-85
2023/08/09 10:47:49;;;;;;;0.10;0.10;;;;;;;23.76;68.96;96584.63;5022550;28;20125;-82
2023/08/09 10:50:35;;;;;;;0.20;0.20;;;;;;;23.65;71.99;96591.59;5020258;28;20455;-82
2023/08/09 10:53:21;;;;;;;0.20;0.20;;;;;;;23.94;55.96;96596.25;5014163;28;20041;-82
2023/08/09 10:56:29;;;;;;;0.10;0.10;;;;;;;23.70;48.98;96593.34;5018984;28;20064;-82
2023/08/09 10:59:25;;;;;;;0.10;0.10;;;;;;;23.75;51.05;96604.88;5019154;28;20556;-84
2023/08/09 11:02:11;;;;;;;0.10;0.10;;;;;;;23.57;51.90;96598.66;5017265;28;20068;-85
2023/08/09 11:04:57;;;;;;;0.13;0.13;;;;;;;23.60;63.84;96600.78;5020547;28;20034;-82
2023/08/09 11:07:47;;;;;;;0.13;0.13;;;;;;;23.67;57.79;96607.66;5017069;28;20037;-85
2023/08/09 11:10:36;;;;;;;0.20;0.20;;;;;;;23.73;58.42;96606.31;5019044;28;20029;-84
2023/08/09 11:13:21;;;;;;;0.10;0.10;;;;;;;23.68;56.91;96603.81;5016531;28;20051;-80
2023/08/09 11:16:07;;;;;;;0.20;0.20;;;;;;;23.35;61.21;96607.94;5018381;28;20860;-83
2023/08/09 11:19:03;;;;;;;0.10;0.10;;;;;;;22.95;62.54;96610.09;5018382;28;20521;-83
2023/08/09 11:21:52;;;;;;;0.15;0.15;;;;;;;23.03;62.83;96611.22;5026173;28;20045;-81
2023/08/09 11:24:38;;;;;;;0.10;0.10;;;;;;;22.73;60.12;96618.47;5033122;28;20052;-81
2023/08/09 11:27:23;;;;;;;0.10;0.10;;;;;;;22.47;59.86;96621.22;5015690;28;20818;-81
2023/08/09 11:30:10;;;;;;;0.10;0.10;;;;;;;22.53;65.54;96609.03;5018933;28;20033;-83
2023/08/09 11:33:04;;;;;;;0.20;0.20;;;;;;;22.77;69.61;96612.03;5018644;28;20037;-83
2023/08/09 11:35:50;;;;;;;0.10;0.10;;;;;;;22.76;58.52;96618.63;5019182;28;20159;-82
2023/08/09 11:38:36;;;;;;;0.10;0.10;;;;;;;22.62;60.48;96622.66;5019114;28;20083;-81
2023/08/09 11:41:24;;;;;;;0.10;0.10;;;;;;;22.64;68.21;96623.13;5017659;28;20120;-82
2023/08/09 11:44:14;;;;;;;0.08;0.08;;;;;;;22.43;61.75;96618.34;5017344;28;20045;-84
2023/08/09 11:47:01;;;;;;;0.10;0.10;;;;;;;22.24;73.16;96623.28;5013609;28;20701;-82
2023/08/09 11:49:47;;;;;;;0.20;0.20;;;;;;;22.35;76.60;96634.69;5017343;28;20048;-82
2023/08/09 11:52:32;;;;;;;0.10;0.10;;;;;;;22.07;68.18;96634.13;5000081;28;20026;-84
2023/08/09 11:55:19;;;;;;;0.10;0.10;;;;;;;22.09;72.32;96630.00;5016142;28;20041;-85
2023/08/09 11:58:05;;;;;;;0.10;0.10;;;;;;;22.14;68.41;96629.84;5016564;28;20758;-83
2023/08/09 12:00:51;;;;;;;0.10;0.10;;;;;;;22.03;74.53;96633.19;5018304;28;20049;-83
2023/08/09 12:03:38;;;;;;;0.10;0.10;;;;;;;22.24;71.46;96639.63;5016107;28;20044;-84
2023/08/09 12:06:44;;;;;;;0.10;0.10;;;;;;;22.21;65.13;96643.00;5003584;28;20056;-82
2023/08/09 12:09:36;;;;;;;0.13;0.13;;;;;;;22.35;72.77;96651.84;5016643;28;20099;-83
2023/08/09 12:12:36;;;;;;;0.10;0.10;;;;;;;23.36;69.39;96644.22;4988574;28;20765;-83
2023/08/09 12:15:22;;;;;;;0.10;0.10;;;;;;;23.44;72.90;96635.19;5019749;28;20103;-82
2023/08/09 12:18:08;;;;;;;0.10;0.10;;;;;;;22.96;67.37;96639.03;5019327;28;20037;-84
2023/08/09 12:20:55;;;;;;;0.20;0.20;;;;;;;23.26;68.20;96653.53;5032325;28;20442;-81
2023/08/09 12:23:42;;;;;;;0.20;0.20;;;;;;;21.81;73.77;96653.16;5032602;28;20097;-81
2023/08/09 12:26:32;;;;;;;0.20;0.20;;;;;;;22.26;74.65;96645.59;5027713;28;20048;-83
2023/08/09 12:29:17;;;;;;;0.10;0.10;;;;;;;22.52;74.29;96662.75;5012658;28;20041;-85
2023/08/09 12:32:04;;;;;;;0.10;0.10;;;;;;;21.69;78.91;96662.69;5002053;28;20049;-84
2023/08/09 12:34:49;;;;;;;0.10;0.10;;;;;;;21.59;77.58;96670.34;5018049;28;20410;-80
2023/08/09 12:37:35;;;;;;;0.00;0.00;;;;;;;21.99;76.52;96665.69;5015971;28;20041;-80
2023/08/09 12:40:29;;;;;;;0.20;0.20;;;;;;;21.53;81.19;96664.25;5041303;28;20399;-83
2023/08/09 12:43:14;;;;;;;0.10;0.10;;;;;;;21.88;80.94;96669.84;5041308;28;20062;-82
2023/08/09 12:46:00;;;;;;;0.15;0.15;;;;;;;21.55;82.76;96669.38;5039759;28;20560;-81
2023/08/09 12:48:46;;;;;;;0.20;0.20;;;;;;;22.27;80.27;96676.38;5039423;28;20125;-82
2023/08/09 12:51:33;;;;;;;0.20;0.20;;;;;;;22.62;69.75;96675.25;5041153;28;20971;-84
2023/08/09 12:54:22;;;;;;;0.10;0.10;;;;;;;23.08;71.17;96680.06;5040675;28;20044;-83
2023/08/09 12:57:07;;;;;;;0.13;0.13;;;;;;;23.80;64.91;96669.44;5042041;28;20033;-82
2023/08/09 12:59:53;;;;;;;0.10;0.10;;;;;;;23.77;60.00;96665.44;5041280;28;20037;-83